Time,TemperatureF,DewpointF,PressureIn,WindDirection,WindDirectionDegrees,WindSpeedMPH,WindSpeedGustMPH,Humidity,HourlyPrecipIn,Conditions,Clouds,dailyrainin,SoftwareType,DateUTC
2013-03-10 08:00:00,76.5,66.0,29.93,NNW,339,5.0,12.0,70,0.00,,,0.00,Wunderground v.1.15,2013-03-10 12:00:00,
2013-03-10 08:10:00,77.6,66.2,29.94,NNW,346,5.0,5.0,68,0.00,,,0.00,Wunderground v.1.15,2013-03-10 12:10:00,
2013-03-10 08:20:00,78.5,66.2,29.95,NNW,333,5.0,9.0,66,0.00,,,0.00,Wunderground v.1.15,2013-03-10 12:20:00,
2013-03-10 08:30:00,78.8,66.0,29.95,NW,305,6.0,6.0,65,0.00,,,0.00,Wunderground v.1.15,2013-03-10 12:30:00,
2013-03-10 08:40:00,79.2,67.3,29.95,NNW,347,7.0,9.0,67,0.00,,,0.00,Wunderground v.1.15,2013-03-10 12:40:00,
2013-03-10 08:50:00,79.6,66.8,29.95,NNW,330,7.0,7.0,65,0.00,,,0.00,Wunderground v.1.15,2013-03-10 12:50:00,
2013-03-10 09:00:00,79.0,67.1,29.95,NNW,348,6.0,6.0,67,0.00,,,0.00,Wunderground v.1.15,2013-03-10 13:00:00,
2013-03-10 09:10:00,79.8,67.4,29.95,North,350,7.0,9.0,66,0.00,,,0.00,Wunderground v.1.15,2013-03-10 13:10:00,
2013-03-10 09:20:00,79.9,67.1,29.95,North,1,7.0,7.0,65,0.00,,,0.00,Wunderground v.1.15,2013-03-10 13:20:00,
2013-03-10 09:30:00,79.8,66.5,29.95,NNW,332,7.0,7.0,64,0.00,,,0.00,Wunderground v.1.15,2013-03-10 13:30:00,
2013-03-10 09:40:00,79.9,66.6,29.95,NNW,344,7.0,7.0,64,0.00,,,0.00,Wunderground v.1.15,2013-03-10 13:40:00,
2013-03-10 09:50:00,80.5,66.7,29.96,NW,325,6.0,6.0,63,0.00,,,0.00,Wunderground v.1.15,2013-03-10 13:50:00,
2013-03-10 10:00:00,79.9,66.2,29.96,NNW,334,8.0,8.0,63,0.00,,,0.00,Wunderground v.1.15,2013-03-10 14:00:00,
2013-03-10 10:10:00,80.5,66.3,29.96,NNW,327,8.0,8.0,62,0.00,,,0.00,Wunderground v.1.15,2013-03-10 14:10:00,
2013-03-10 10:20:00,80.5,66.3,29.96,NW,326,9.0,10.0,62,0.00,,,0.00,Wunderground v.1.15,2013-03-10 14:20:00,
2013-03-10 10:30:00,80.3,65.6,29.96,NNW,338,8.0,9.0,61,0.00,,,0.00,Wunderground v.1.15,2013-03-10 14:30:00,
2013-03-10 10:40:00,80.3,65.6,29.96,NW,313,8.0,9.0,61,0.00,,,0.00,Wunderground v.1.15,2013-03-10 14:40:00,
2013-03-10 10:50:00,80.7,66.0,29.96,NNW,328,7.0,7.0,61,0.00,,,0.00,Wunderground v.1.15,2013-03-10 14:50:00,
2013-03-10 11:00:00,81.1,64.9,29.96,NW,310,9.0,9.0,58,0.00,,,0.00,Wunderground v.1.15,2013-03-10 15:00:00,
2013-03-10 11:10:00,81.2,64.5,29.95,NW,321,9.0,9.0,57,0.00,,,0.00,Wunderground v.1.15,2013-03-10 15:10:00,
2013-03-10 11:20:00,81.4,65.2,29.95,NNW,328,9.0,9.0,58,0.00,,,0.00,Wunderground v.1.15,2013-03-10 15:20:00,
2013-03-10 11:30:00,81.8,64.6,29.95,North,359,9.0,9.0,56,0.00,,,0.00,Wunderground v.1.15,2013-03-10 15:30:00,
2013-03-10 11:40:00,81.8,65.1,29.95,NNW,333,8.0,8.0,57,0.00,,,0.00,Wunderground v.1.15,2013-03-10 15:40:00,
2013-03-10 11:50:00,81.6,64.4,29.95,NW,323,8.0,11.0,56,0.00,,,0.00,Wunderground v.1.15,2013-03-10 15:50:00,
2013-03-10 12:00:00,80.7,64.5,29.95,NW,315,9.0,9.0,58,0.00,,,0.00,Wunderground v.1.15,2013-03-10 16:00:00,